sensor_id;sensor_type;location;lat;lon;timestamp;temperature;humidity
21861;DHT22;11095;48.066;8.540;2023-08-20T00:00:35;20.10;99.90
21861;DHT22;11095;48.066;8.540;2023-08-20T00:03:11;20.00;99.90
21861;DHT22;11095;48.066;8.540;2023-08-20T00:05:38;20.00;99.90
21861;DHT22;11095;48.066;8.540;2023-08-20T00:08:04;20.00;99.90
21861;DHT22;11095;48.066;8.540;2023-08-20T00:10:30;20.00;99.90
21861;DHT22;11095;48.066;8.540;2023-08-20T00:12:56;19.90;99.90
21861;DHT22;11095;48.066;8.540;2023-08-20T00:15:21;19.90;99.90
21861;DHT22;11095;48.066;8.540;2023-08-20T00:17:52;19.90;99.90
21861;DHT22;11095;48.066;8.540;2023-08-20T00:20:18;20.00;99.90
21861;DHT22;11095;48.066;8.540;2023-08-20T00:22:44;19.90;99.90
21861;DHT22;11095;48.066;8.540;2023-08-20T00:25:11;20.00;99.90
21861;DHT22;11095;48.066;8.540;2023-08-20T00:27:38;20.00;99.90
21861;DHT22;11095;48.066;8.540;2023-08-20T00:30:04;19.90;99.90
21861;DHT22;11095;48.066;8.540;2023-08-20T00:32:30;19.90;99.90
21861;DHT22;11095;48.066;8.540;2023-08-20T00:34:56;19.90;99.90
21861;DHT22;11095;48.066;8.540;2023-08-20T00:37:21;19.80;99.90
21861;DHT22;11095;48.066;8.540;2023-08-20T00:39:47;19.80;99.90
21861;DHT22;11095;48.066;8.540;2023-08-20T00:42:13;19.70;99.90
21861;DHT22;11095;48.066;8.540;2023-08-20T00:44:41;19.60;99.90
21861;DHT22;11095;48.066;8.540;2023-08-20T00:47:10;19.50;99.90
21861;DHT22;11095;48.066;8.540;2023-08-20T00:49:36;19.50;99.90
21861;DHT22;11095;48.066;8.540;2023-08-20T00:52:02;19.40;99.90
21861;DHT22;11095;48.066;8.540;2023-08-20T00:54:29;19.40;99.90
21861;DHT22;11095;48.066;8.540;2023-08-20T00:56:55;19.40;99.90
21861;DHT22;11095;48.066;8.540;2023-08-20T00:59:20;19.40;99.90
21861;DHT22;11095;48.066;8.540;2023-08-20T01:01:46;19.40;99.90
21861;DHT22;11095;48.066;8.540;2023-08-20T01:04:12;19.40;99.90
21861;DHT22;11095;48.066;8.540;2023-08-20T01:09:24;19.30;99.90
21861;DHT22;11095;48.066;8.540;2023-08-20T01:11:59;19.30;99.90
21861;DHT22;11095;48.066;8.540;2023-08-20T01:14:25;19.30;99.90
21861;DHT22;11095;48.066;8.540;2023-08-20T01:16:50;19.30;99.90
21861;DHT22;11095;48.066;8.540;2023-08-20T01:19:20;19.30;99.90
21861;DHT22;11095;48.066;8.540;2023-08-20T01:28:06;19.20;99.90
21861;DHT22;11095;48.066;8.540;2023-08-20T01:30:34;19.10;99.90
21861;DHT22;11095;48.066;8.540;2023-08-20T01:33:00;19.10;99.90
21861;DHT22;11095;48.066;8.540;2023-08-20T01:35:27;19.00;99.90
21861;DHT22;11095;48.066;8.540;2023-08-20T01:37:52;19.00;99.90
21861;DHT22;11095;48.066;8.540;2023-08-20T01:40:18;18.90;99.90
21861;DHT22;11095;48.066;8.540;2023-08-20T01:42:43;18.90;99.90
21861;DHT22;11095;48.066;8.540;2023-08-20T01:45:09;18.80;99.90
21861;DHT22;11095;48.066;8.540;2023-08-20T01:47:36;18.80;99.90
21861;DHT22;11095;48.066;8.540;2023-08-20T01:50:02;18.80;99.90
21861;DHT22;11095;48.066;8.540;2023-08-20T01:52:27;18.80;99.90
21861;DHT22;11095;48.066;8.540;2023-08-20T01:54:55;18.70;99.90
21861;DHT22;11095;48.066;8.540;2023-08-20T01:57:20;18.80;99.90
21861;DHT22;11095;48.066;8.540;2023-08-20T01:59:47;18.80;99.90
21861;DHT22;11095;48.066;8.540;2023-08-20T02:02:13;18.80;99.90
21861;DHT22;11095;48.066;8.540;2023-08-20T02:04:38;18.70;99.90
21861;DHT22;11095;48.066;8.540;2023-08-20T02:07:04;18.70;99.90
21861;DHT22;11095;48.066;8.540;2023-08-20T02:09:29;18.70;99.90
21861;DHT22;11095;48.066;8.540;2023-08-20T02:11:55;18.70;99.90
21861;DHT22;11095;48.066;8.540;2023-08-20T02:14:20;18.70;99.90
21861;DHT22;11095;48.066;8.540;2023-08-20T02:16:47;18.60;99.90
21861;DHT22;11095;48.066;8.540;2023-08-20T02:19:12;18.60;99.90
21861;DHT22;11095;48.066;8.540;2023-08-20T02:21:39;18.60;99.90
21861;DHT22;11095;48.066;8.540;2023-08-20T02:24:05;18.60;99.90
21861;DHT22;11095;48.066;8.540;2023-08-20T02:26:31;18.60;99.90
21861;DHT22;11095;48.066;8.540;2023-08-20T02:28:56;18.60;99.90
21861;DHT22;11095;48.066;8.540;2023-08-20T02:31:22;18.60;99.90
21861;DHT22;11095;48.066;8.540;2023-08-20T02:33:47;18.60;99.90
21861;DHT22;11095;48.066;8.540;2023-08-20T02:36:13;18.60;99.90
21861;DHT22;11095;48.066;8.540;2023-08-20T02:38:38;18.50;99.90
21861;DHT22;11095;48.066;8.540;2023-08-20T02:41:04;18.50;99.90
21861;DHT22;11095;48.066;8.540;2023-08-20T02:43:30;18.50;99.90
21861;DHT22;11095;48.066;8.540;2023-08-20T02:45:55;18.50;99.90
21861;DHT22;11095;48.066;8.540;2023-08-20T02:48:21;18.50;99.90
21861;DHT22;11095;48.066;8.540;2023-08-20T02:50:52;18.50;99.90
21861;DHT22;11095;48.066;8.540;2023-08-20T02:53:18;18.50;99.90
21861;DHT22;11095;48.066;8.540;2023-08-20T02:55:44;18.40;99.90
21861;DHT22;11095;48.066;8.540;2023-08-20T02:58:09;18.40;99.90
21861;DHT22;11095;48.066;8.540;2023-08-20T03:00:35;18.40;99.90
21861;DHT22;11095;48.066;8.540;2023-08-20T03:03:01;18.50;99.90
21861;DHT22;11095;48.066;8.540;2023-08-20T03:05:31;18.50;99.90
21861;DHT22;11095;48.066;8.540;2023-08-20T03:07:57;18.50;99.90
21861;DHT22;11095;48.066;8.540;2023-08-20T03:10:23;18.50;99.90
21861;DHT22;11095;48.066;8.540;2023-08-20T03:12:48;18.50;99.90
21861;DHT22;11095;48.066;8.540;2023-08-20T03:15:14;18.50;99.90
21861;DHT22;11095;48.066;8.540;2023-08-20T03:17:39;18.50;99.90
21861;DHT22;11095;48.066;8.540;2023-08-20T03:20:06;18.50;99.90
21861;DHT22;11095;48.066;8.540;2023-08-20T03:22:32;18.40;99.90
21861;DHT22;11095;48.066;8.540;2023-08-20T03:24:58;18.40;99.90
21861;DHT22;11095;48.066;8.540;2023-08-20T03:27:24;18.40;99.90
21861;DHT22;11095;48.066;8.540;2023-08-20T03:29:49;18.40;99.90
21861;DHT22;11095;48.066;8.540;2023-08-20T03:32:15;18.40;99.90
21861;DHT22;11095;48.066;8.540;2023-08-20T03:34:40;18.30;99.90
21861;DHT22;11095;48.066;8.540;2023-08-20T03:37:06;18.30;99.90
21861;DHT22;11095;48.066;8.540;2023-08-20T03:39:32;18.20;99.90
21861;DHT22;11095;48.066;8.540;2023-08-20T03:41:57;18.10;99.90
21861;DHT22;11095;48.066;8.540;2023-08-20T03:44:23;18.00;99.90
21861;DHT22;11095;48.066;8.540;2023-08-20T03:46:49;18.00;99.90
21861;DHT22;11095;48.066;8.540;2023-08-20T03:49:15;17.90;99.90
21861;DHT22;11095;48.066;8.540;2023-08-20T03:51:41;17.90;99.90
21861;DHT22;11095;48.066;8.540;2023-08-20T03:54:08;17.90;99.90
21861;DHT22;11095;48.066;8.540;2023-08-20T03:56:34;17.90;99.90
21861;DHT22;11095;48.066;8.540;2023-08-20T03:58:59;17.90;99.90
21861;DHT22;11095;48.066;8.540;2023-08-20T04:01:25;17.90;99.90
21861;DHT22;11095;48.066;8.540;2023-08-20T04:03:51;17.90;99.90
21861;DHT22;11095;48.066;8.540;2023-08-20T04:06:16;17.90;99.90
21861;DHT22;11095;48.066;8.540;2023-08-20T04:08:42;17.90;99.90
21861;DHT22;11095;48.066;8.540;2023-08-20T04:11:08;17.90;99.90
21861;DHT22;11095;48.066;8.540;2023-08-20T04:13:33;17.90;99.90
21861;DHT22;11095;48.066;8.540;2023-08-20T04:15:59;17.90;99.90
21861;DHT22;11095;48.066;8.540;2023-08-20T04:18:24;17.90;99.90
21861;DHT22;11095;48.066;8.540;2023-08-20T04:20:51;17.90;99.90
21861;DHT22;11095;48.066;8.540;2023-08-20T04:23:18;17.90;99.90
21861;DHT22;11095;48.066;8.540;2023-08-20T04:25:44;17.90;99.90
21861;DHT22;11095;48.066;8.540;2023-08-20T04:28:10;17.90;99.90
21861;DHT22;11095;48.066;8.540;2023-08-20T04:30:36;17.90;99.90
21861;DHT22;11095;48.066;8.540;2023-08-20T04:33:02;17.90;99.90
21861;DHT22;11095;48.066;8.540;2023-08-20T04:35:28;17.90;99.90
21861;DHT22;11095;48.066;8.540;2023-08-20T04:37:53;17.90;99.90
21861;DHT22;11095;48.066;8.540;2023-08-20T04:40:19;17.90;99.90
21861;DHT22;11095;48.066;8.540;2023-08-20T04:42:44;17.90;99.90
21861;DHT22;11095;48.066;8.540;2023-08-20T04:45:10;18.00;99.90
21861;DHT22;11095;48.066;8.540;2023-08-20T04:47:36;18.20;99.90
21861;DHT22;11095;48.066;8.540;2023-08-20T04:50:02;18.40;99.90
21861;DHT22;11095;48.066;8.540;2023-08-20T04:52:28;18.60;99.90
21861;DHT22;11095;48.066;8.540;2023-08-20T04:54:54;18.90;99.90
21861;DHT22;11095;48.066;8.540;2023-08-20T04:57:19;19.30;99.90
21861;DHT22;11095;48.066;8.540;2023-08-20T04:59:45;19.70;99.90
21861;DHT22;11095;48.066;8.540;2023-08-20T05:02:13;20.20;99.90
21861;DHT22;11095;48.066;8.540;2023-08-20T05:04:39;20.70;99.90
21861;DHT22;11095;48.066;8.540;2023-08-20T05:07:05;21.30;99.90
21861;DHT22;11095;48.066;8.540;2023-08-20T05:09:31;22.00;99.90
21861;DHT22;11095;48.066;8.540;2023-08-20T05:11:56;22.70;99.90
21861;DHT22;11095;48.066;8.540;2023-08-20T05:14:22;23.40;99.90
21861;DHT22;11095;48.066;8.540;2023-08-20T05:16:47;24.20;99.90
21861;DHT22;11095;48.066;8.540;2023-08-20T05:19:13;24.90;99.90
21861;DHT22;11095;48.066;8.540;2023-08-20T05:21:39;25.70;99.90
21861;DHT22;11095;48.066;8.540;2023-08-20T05:24:04;26.30;99.90
21861;DHT22;11095;48.066;8.540;2023-08-20T05:26:30;27.00;99.90
21861;DHT22;11095;48.066;8.540;2023-08-20T05:28:56;27.60;99.90
21861;DHT22;11095;48.066;8.540;2023-08-20T05:31:21;28.30;99.90
21861;DHT22;11095;48.066;8.540;2023-08-20T05:33:47;29.00;99.90
21861;DHT22;11095;48.066;8.540;2023-08-20T05:36:14;29.80;99.90
21861;DHT22;11095;48.066;8.540;2023-08-20T05:38:39;30.40;99.90
21861;DHT22;11095;48.066;8.540;2023-08-20T05:41:07;30.60;99.90
21861;DHT22;11095;48.066;8.540;2023-08-20T05:43:33;30.30;99.90
21861;DHT22;11095;48.066;8.540;2023-08-20T05:45:58;29.60;99.90
21861;DHT22;11095;48.066;8.540;2023-08-20T05:48:24;28.90;99.90
21861;DHT22;11095;48.066;8.540;2023-08-20T05:50:49;28.20;99.90
21861;DHT22;11095;48.066;8.540;2023-08-20T05:53:15;27.60;99.90
21861;DHT22;11095;48.066;8.540;2023-08-20T05:55:41;27.10;99.90
21861;DHT22;11095;48.066;8.540;2023-08-20T05:58:06;26.60;99.90
21861;DHT22;11095;48.066;8.540;2023-08-20T06:00:32;26.10;99.90
21861;DHT22;11095;48.066;8.540;2023-08-20T06:02:57;25.60;99.90
21861;DHT22;11095;48.066;8.540;2023-08-20T06:05:23;25.20;99.90
21861;DHT22;11095;48.066;8.540;2023-08-20T06:07:48;24.80;99.90
21861;DHT22;11095;48.066;8.540;2023-08-20T06:10:15;24.50;99.90
21861;DHT22;11095;48.066;8.540;2023-08-20T06:12:41;24.30;99.90
21861;DHT22;11095;48.066;8.540;2023-08-20T06:15:07;24.20;99.90
21861;DHT22;11095;48.066;8.540;2023-08-20T06:17:33;24.00;99.90
21861;DHT22;11095;48.066;8.540;2023-08-20T06:19:59;23.80;99.90
21861;DHT22;11095;48.066;8.540;2023-08-20T06:22:24;23.80;99.90
21861;DHT22;11095;48.066;8.540;2023-08-20T06:24:50;23.80;99.90
21861;DHT22;11095;48.066;8.540;2023-08-20T06:27:15;23.90;99.90
21861;DHT22;11095;48.066;8.540;2023-08-20T06:29:41;24.00;99.90
21861;DHT22;11095;48.066;8.540;2023-08-20T06:32:07;24.20;99.90
21861;DHT22;11095;48.066;8.540;2023-08-20T06:34:34;24.40;99.90
21861;DHT22;11095;48.066;8.540;2023-08-20T06:37:00;24.60;99.90
21861;DHT22;11095;48.066;8.540;2023-08-20T06:39:25;25.00;99.90
21861;DHT22;11095;48.066;8.540;2023-08-20T06:41:51;25.50;99.90
21861;DHT22;11095;48.066;8.540;2023-08-20T06:44:16;26.00;99.90
21861;DHT22;11095;48.066;8.540;2023-08-20T06:46:42;27.30;99.90
21861;DHT22;11095;48.066;8.540;2023-08-20T06:49:08;28.90;99.90
21861;DHT22;11095;48.066;8.540;2023-08-20T06:51:33;30.00;99.90
21861;DHT22;11095;48.066;8.540;2023-08-20T06:53:59;31.40;99.90
21861;DHT22;11095;48.066;8.540;2023-08-20T06:56:24;33.00;99.90
21861;DHT22;11095;48.066;8.540;2023-08-20T06:58:50;34.40;99.90
21861;DHT22;11095;48.066;8.540;2023-08-20T07:01:16;35.50;99.90
21861;DHT22;11095;48.066;8.540;2023-08-20T07:03:43;36.60;99.90
21861;DHT22;11095;48.066;8.540;2023-08-20T07:06:09;37.20;99.90
21861;DHT22;11095;48.066;8.540;2023-08-20T07:08:35;37.50;99.90
21861;DHT22;11095;48.066;8.540;2023-08-20T07:11:02;38.30;99.90
21861;DHT22;11095;48.066;8.540;2023-08-20T07:13:27;39.50;99.80
21861;DHT22;11095;48.066;8.540;2023-08-20T07:15:53;40.60;97.60
21861;DHT22;11095;48.066;8.540;2023-08-20T07:18:19;41.50;94.50
21861;DHT22;11095;48.066;8.540;2023-08-20T07:20:45;41.40;93.40
21861;DHT22;11095;48.066;8.540;2023-08-20T07:23:11;41.40;92.60
21861;DHT22;11095;48.066;8.540;2023-08-20T07:25:41;41.80;91.30
21861;DHT22;11095;48.066;8.540;2023-08-20T07:28:07;41.90;90.70
21861;DHT22;11095;48.066;8.540;2023-08-20T07:30:34;42.30;89.20
21861;DHT22;11095;48.066;8.540;2023-08-20T07:33:00;42.50;87.20
21861;DHT22;11095;48.066;8.540;2023-08-20T07:35:26;42.70;85.00
21861;DHT22;11095;48.066;8.540;2023-08-20T07:37:52;42.30;82.60
21861;DHT22;11095;48.066;8.540;2023-08-20T07:40:18;41.60;81.90
21861;DHT22;11095;48.066;8.540;2023-08-20T07:42:43;41.20;82.90
21861;DHT22;11095;48.066;8.540;2023-08-20T07:45:09;41.40;83.40
21861;DHT22;11095;48.066;8.540;2023-08-20T07:47:36;41.50;83.00
21861;DHT22;11095;48.066;8.540;2023-08-20T07:50:02;42.00;80.60
21861;DHT22;11095;48.066;8.540;2023-08-20T07:52:27;42.50;80.10
21861;DHT22;11095;48.066;8.540;2023-08-20T07:54:53;43.30;78.20
21861;DHT22;11095;48.066;8.540;2023-08-20T07:57:19;43.70;76.50
21861;DHT22;11095;48.066;8.540;2023-08-20T07:59:44;43.60;74.20
21861;DHT22;11095;48.066;8.540;2023-08-20T08:02:10;43.70;73.10
21861;DHT22;11095;48.066;8.540;2023-08-20T08:04:36;43.70;71.40
21861;DHT22;11095;48.066;8.540;2023-08-20T08:07:01;44.10;71.30
21861;DHT22;11095;48.066;8.540;2023-08-20T08:09:31;44.20;68.80
21861;DHT22;11095;48.066;8.540;2023-08-20T08:11:58;44.20;67.40
21861;DHT22;11095;48.066;8.540;2023-08-20T08:14:24;43.40;67.10
21861;DHT22;11095;48.066;8.540;2023-08-20T08:16:50;43.10;67.60
21861;DHT22;11095;48.066;8.540;2023-08-20T08:19:16;43.00;68.50
21861;DHT22;11095;48.066;8.540;2023-08-20T08:21:43;43.00;67.50
21861;DHT22;11095;48.066;8.540;2023-08-20T08:24:09;42.70;66.30
21861;DHT22;11095;48.066;8.540;2023-08-20T08:26:35;42.40;67.20
21861;DHT22;11095;48.066;8.540;2023-08-20T08:29:02;42.20;68.10
21861;DHT22;11095;48.066;8.540;2023-08-20T08:31:28;42.20;67.80
21861;DHT22;11095;48.066;8.540;2023-08-20T08:33:53;42.20;68.10
21861;DHT22;11095;48.066;8.540;2023-08-20T08:36:19;41.60;67.80
21861;DHT22;11095;48.066;8.540;2023-08-20T08:38:45;40.80;68.60
21861;DHT22;11095;48.066;8.540;2023-08-20T08:41:12;40.50;68.90
21861;DHT22;11095;48.066;8.540;2023-08-20T08:43:38;40.40;69.50
21861;DHT22;11095;48.066;8.540;2023-08-20T08:46:14;40.10;70.80
21861;DHT22;11095;48.066;8.540;2023-08-20T08:48:44;39.50;71.70
21861;DHT22;11095;48.066;8.540;2023-08-20T08:51:14;37.30;74.70
21861;DHT22;11095;48.066;8.540;2023-08-20T08:53:42;36.10;77.90
21861;DHT22;11095;48.066;8.540;2023-08-20T08:56:08;35.50;80.00
21861;DHT22;11095;48.066;8.540;2023-08-20T08:58:33;34.00;81.80
21861;DHT22;11095;48.066;8.540;2023-08-20T09:00:59;34.00;84.50
21861;DHT22;11095;48.066;8.540;2023-08-20T09:03:27;34.70;83.70
21861;DHT22;11095;48.066;8.540;2023-08-20T09:06:01;35.30;82.80
21861;DHT22;11095;48.066;8.540;2023-08-20T09:08:30;34.60;82.20
21861;DHT22;11095;48.066;8.540;2023-08-20T09:10:56;33.30;84.40
21861;DHT22;11095;48.066;8.540;2023-08-20T09:13:36;32.80;86.70
21861;DHT22;11095;48.066;8.540;2023-08-20T09:16:06;33.80;85.90
21861;DHT22;11095;48.066;8.540;2023-08-20T09:18:33;35.00;84.90
21861;DHT22;11095;48.066;8.540;2023-08-20T09:21:06;34.20;84.70
21861;DHT22;11095;48.066;8.540;2023-08-20T09:23:32;34.10;86.00
21861;DHT22;11095;48.066;8.540;2023-08-20T09:26:02;34.00;86.30
21861;DHT22;11095;48.066;8.540;2023-08-20T09:28:28;33.20;87.30
21861;DHT22;11095;48.066;8.540;2023-08-20T09:30:59;33.20;88.30
21861;DHT22;11095;48.066;8.540;2023-08-20T09:33:28;32.90;89.20
21861;DHT22;11095;48.066;8.540;2023-08-20T09:35:54;32.60;91.00
21861;DHT22;11095;48.066;8.540;2023-08-20T09:38:21;32.70;91.10
21861;DHT22;11095;48.066;8.540;2023-08-20T09:40:53;31.20;93.80
21861;DHT22;11095;48.066;8.540;2023-08-20T09:43:24;31.30;94.80
21861;DHT22;11095;48.066;8.540;2023-08-20T09:45:55;31.40;94.10
21861;DHT22;11095;48.066;8.540;2023-08-20T09:48:22;31.50;94.90
21861;DHT22;11095;48.066;8.540;2023-08-20T09:50:51;30.90;96.50
21861;DHT22;11095;48.066;8.540;2023-08-20T09:53:27;31.20;97.40
21861;DHT22;11095;48.066;8.540;2023-08-20T09:56:01;30.20;98.00
21861;DHT22;11095;48.066;8.540;2023-08-20T09:58:30;30.70;98.30
21861;DHT22;11095;48.066;8.540;2023-08-20T10:00:56;30.50;98.80
21861;DHT22;11095;48.066;8.540;2023-08-20T10:03:22;30.80;99.30
21861;DHT22;11095;48.066;8.540;2023-08-20T10:05:51;30.30;98.60
21861;DHT22;11095;48.066;8.540;2023-08-20T10:08:17;29.60;99.80
21861;DHT22;11095;48.066;8.540;2023-08-20T10:10:42;29.20;99.90
21861;DHT22;11095;48.066;8.540;2023-08-20T10:13:08;29.60;99.90
21861;DHT22;11095;48.066;8.540;2023-08-20T10:15:34;29.70;99.90
21861;DHT22;11095;48.066;8.540;2023-08-20T10:18:02;29.40;99.90
21861;DHT22;11095;48.066;8.540;2023-08-20T10:20:31;29.30;99.90
21861;DHT22;11095;48.066;8.540;2023-08-20T10:23:02;29.60;99.90
21861;DHT22;11095;48.066;8.540;2023-08-20T10:25:29;29.60;99.90
21861;DHT22;11095;48.066;8.540;2023-08-20T10:28:20;29.50;99.90
21861;DHT22;11095;48.066;8.540;2023-08-20T10:31:12;29.90;99.90
21861;DHT22;11095;48.066;8.540;2023-08-20T10:33:48;29.80;99.90
21861;DHT22;11095;48.066;8.540;2023-08-20T10:36:17;29.50;99.90
21861;DHT22;11095;48.066;8.540;2023-08-20T10:38:45;29.20;99.90
21861;DHT22;11095;48.066;8.540;2023-08-20T10:41:11;29.60;99.90
21861;DHT22;11095;48.066;8.540;2023-08-20T10:43:39;29.90;99.90
21861;DHT22;11095;48.066;8.540;2023-08-20T10:46:29;30.10;99.90
21861;DHT22;11095;48.066;8.540;2023-08-20T10:48:57;30.20;99.90
21861;DHT22;11095;48.066;8.540;2023-08-20T10:51:36;30.10;99.90
21861;DHT22;11095;48.066;8.540;2023-08-20T10:54:06;30.40;99.90
21861;DHT22;11095;48.066;8.540;2023-08-20T10:56:45;30.40;99.90
21861;DHT22;11095;48.066;8.540;2023-08-20T10:59:22;30.50;98.80
21861;DHT22;11095;48.066;8.540;2023-08-20T11:01:49;31.20;97.60
21861;DHT22;11095;48.066;8.540;2023-08-20T11:04:16;31.20;97.40
21861;DHT22;11095;48.066;8.540;2023-08-20T11:06:43;30.60;98.70
21861;DHT22;11095;48.066;8.540;2023-08-20T11:09:09;30.50;99.60
21861;DHT22;11095;48.066;8.540;2023-08-20T11:11:38;30.30;99.90
21861;DHT22;11095;48.066;8.540;2023-08-20T11:14:11;30.20;99.40
21861;DHT22;11095;48.066;8.540;2023-08-20T11:16:39;30.30;98.00
21861;DHT22;11095;48.066;8.540;2023-08-20T11:19:05;30.50;98.10
21861;DHT22;11095;48.066;8.540;2023-08-20T11:21:37;30.50;97.90
21861;DHT22;11095;48.066;8.540;2023-08-20T11:24:03;30.00;96.00
21861;DHT22;11095;48.066;8.540;2023-08-20T11:26:30;30.10;96.90
21861;DHT22;11095;48.066;8.540;2023-08-20T11:28:55;30.40;96.10
21861;DHT22;11095;48.066;8.540;2023-08-20T11:31:21;30.70;96.00
21861;DHT22;11095;48.066;8.540;2023-08-20T11:33:48;30.50;95.40
21861;DHT22;11095;48.066;8.540;2023-08-20T11:36:15;30.60;95.40
21861;DHT22;11095;48.066;8.540;2023-08-20T11:38:54;31.00;95.40
21861;DHT22;11095;48.066;8.540;2023-08-20T11:41:20;30.70;94.70
21861;DHT22;11095;48.066;8.540;2023-08-20T11:43:50;30.60;95.70
21861;DHT22;11095;48.066;8.540;2023-08-20T11:46:20;30.80;96.90
21861;DHT22;11095;48.066;8.540;2023-08-20T11:49:20;30.50;95.80
21861;DHT22;11095;48.066;8.540;2023-08-20T11:51:51;30.60;95.60
21861;DHT22;11095;48.066;8.540;2023-08-20T11:54:18;30.40;95.70
21861;DHT22;11095;48.066;8.540;2023-08-20T11:56:44;30.40;96.50
21861;DHT22;11095;48.066;8.540;2023-08-20T11:59:11;30.40;95.70
21861;DHT22;11095;48.066;8.540;2023-08-20T12:01:37;30.70;96.30
21861;DHT22;11095;48.066;8.540;2023-08-20T12:04:04;30.70;95.30
21861;DHT22;11095;48.066;8.540;2023-08-20T12:06:31;30.60;95.60
21861;DHT22;11095;48.066;8.540;2023-08-20T12:09:00;30.50;95.50
21861;DHT22;11095;48.066;8.540;2023-08-20T12:11:26;30.70;94.80
21861;DHT22;11095;48.066;8.540;2023-08-20T12:13:52;30.90;94.40
21861;DHT22;11095;48.066;8.540;2023-08-20T12:16:18;31.30;95.10
21861;DHT22;11095;48.066;8.540;2023-08-20T12:18:46;31.80;94.80
21861;DHT22;11095;48.066;8.540;2023-08-20T12:21:11;31.70;93.70
21861;DHT22;11095;48.066;8.540;2023-08-20T12:23:37;30.90;93.60
21861;DHT22;11095;48.066;8.540;2023-08-20T12:26:03;31.00;94.20
21861;DHT22;11095;48.066;8.540;2023-08-20T12:28:29;30.80;94.10
21861;DHT22;11095;48.066;8.540;2023-08-20T12:30:54;30.50;93.70
21861;DHT22;11095;48.066;8.540;2023-08-20T12:33:20;30.20;94.50
21861;DHT22;11095;48.066;8.540;2023-08-20T12:35:46;30.40;93.90
21861;DHT22;11095;48.066;8.540;2023-08-20T12:38:12;30.30;93.80
21861;DHT22;11095;48.066;8.540;2023-08-20T12:40:37;30.20;95.00
21861;DHT22;11095;48.066;8.540;2023-08-20T12:43:03;30.10;94.40
21861;DHT22;11095;48.066;8.540;2023-08-20T12:45:29;30.00;95.30
21861;DHT22;11095;48.066;8.540;2023-08-20T12:47:55;30.00;95.00
21861;DHT22;11095;48.066;8.540;2023-08-20T12:50:21;30.00;95.10
21861;DHT22;11095;48.066;8.540;2023-08-20T12:52:46;30.20;95.40
21861;DHT22;11095;48.066;8.540;2023-08-20T12:55:14;30.30;93.80
21861;DHT22;11095;48.066;8.540;2023-08-20T12:57:52;30.50;94.30
21861;DHT22;11095;48.066;8.540;2023-08-20T13:00:19;30.60;94.40
21861;DHT22;11095;48.066;8.540;2023-08-20T13:02:44;30.70;94.50
21861;DHT22;11095;48.066;8.540;2023-08-20T13:05:10;30.90;95.40
21861;DHT22;11095;48.066;8.540;2023-08-20T13:07:36;31.20;93.80
21861;DHT22;11095;48.066;8.540;2023-08-20T13:10:02;31.60;93.30
21861;DHT22;11095;48.066;8.540;2023-08-20T13:12:29;32.00;92.40
21861;DHT22;11095;48.066;8.540;2023-08-20T13:14:57;32.20;92.50
21861;DHT22;11095;48.066;8.540;2023-08-20T13:17:24;32.50;91.20
21861;DHT22;11095;48.066;8.540;2023-08-20T13:19:49;32.60;91.20
21861;DHT22;11095;48.066;8.540;2023-08-20T13:22:15;32.60;92.00
21861;DHT22;11095;48.066;8.540;2023-08-20T13:24:41;32.60;92.30
21861;DHT22;11095;48.066;8.540;2023-08-20T13:27:06;32.50;92.10
21861;DHT22;11095;48.066;8.540;2023-08-20T13:29:32;32.40;92.10
21861;DHT22;11095;48.066;8.540;2023-08-20T13:31:57;32.40;92.00
21861;DHT22;11095;48.066;8.540;2023-08-20T13:34:23;32.60;92.20
21861;DHT22;11095;48.066;8.540;2023-08-20T13:36:49;32.80;91.70
21861;DHT22;11095;48.066;8.540;2023-08-20T13:39:14;32.80;88.40
21861;DHT22;11095;48.066;8.540;2023-08-20T13:41:41;33.00;90.00
21861;DHT22;11095;48.066;8.540;2023-08-20T13:44:07;33.00;90.40
21861;DHT22;11095;48.066;8.540;2023-08-20T13:46:34;33.00;88.80
21861;DHT22;11095;48.066;8.540;2023-08-20T13:48:59;33.00;90.00
21861;DHT22;11095;48.066;8.540;2023-08-20T13:51:25;32.80;88.10
21861;DHT22;11095;48.066;8.540;2023-08-20T13:53:51;32.60;88.00
21861;DHT22;11095;48.066;8.540;2023-08-20T13:56:16;32.30;86.90
21861;DHT22;11095;48.066;8.540;2023-08-20T13:58:42;31.60;88.50
21861;DHT22;11095;48.066;8.540;2023-08-20T14:01:07;31.70;90.00
21861;DHT22;11095;48.066;8.540;2023-08-20T14:03:33;31.80;89.10
21861;DHT22;11095;48.066;8.540;2023-08-20T14:05:58;31.90;89.40
21861;DHT22;11095;48.066;8.540;2023-08-20T14:08:24;32.00;89.70
21861;DHT22;11095;48.066;8.540;2023-08-20T14:10:49;32.20;90.30
21861;DHT22;11095;48.066;8.540;2023-08-20T14:13:15;32.30;90.50
21861;DHT22;11095;48.066;8.540;2023-08-20T14:15:40;32.40;90.60
21861;DHT22;11095;48.066;8.540;2023-08-20T14:18:06;32.60;90.70
21861;DHT22;11095;48.066;8.540;2023-08-20T14:20:32;32.70;91.50
21861;DHT22;11095;48.066;8.540;2023-08-20T14:22:57;32.60;92.50
21861;DHT22;11095;48.066;8.540;2023-08-20T14:25:23;32.60;92.70
21861;DHT22;11095;48.066;8.540;2023-08-20T14:27:49;32.60;92.80
21861;DHT22;11095;48.066;8.540;2023-08-20T14:30:14;32.50;93.00
21861;DHT22;11095;48.066;8.540;2023-08-20T14:32:40;32.40;92.80
21861;DHT22;11095;48.066;8.540;2023-08-20T14:35:08;32.40;93.30
21861;DHT22;11095;48.066;8.540;2023-08-20T14:37:34;32.40;93.00
21861;DHT22;11095;48.066;8.540;2023-08-20T14:39:59;32.40;93.20
21861;DHT22;11095;48.066;8.540;2023-08-20T14:42:25;32.30;93.00
21861;DHT22;11095;48.066;8.540;2023-08-20T14:44:50;32.30;93.10
21861;DHT22;11095;48.066;8.540;2023-08-20T14:47:16;32.30;92.80
21861;DHT22;11095;48.066;8.540;2023-08-20T14:49:41;32.00;93.00
21861;DHT22;11095;48.066;8.540;2023-08-20T14:52:07;31.90;93.40
21861;DHT22;11095;48.066;8.540;2023-08-20T14:54:32;31.50;93.90
21861;DHT22;11095;48.066;8.540;2023-08-20T14:56:58;31.10;94.90
21861;DHT22;11095;48.066;8.540;2023-08-20T14:59:23;30.90;95.70
21861;DHT22;11095;48.066;8.540;2023-08-20T15:01:49;30.50;96.70
21861;DHT22;11095;48.066;8.540;2023-08-20T15:04:15;30.40;97.00
21861;DHT22;11095;48.066;8.540;2023-08-20T15:06:40;30.40;97.40
21861;DHT22;11095;48.066;8.540;2023-08-20T15:09:06;30.40;97.50
21861;DHT22;11095;48.066;8.540;2023-08-20T15:11:33;30.50;97.90
21861;DHT22;11095;48.066;8.540;2023-08-20T15:13:59;30.50;98.80
21861;DHT22;11095;48.066;8.540;2023-08-20T15:16:25;30.60;99.10
21861;DHT22;11095;48.066;8.540;2023-08-20T15:18:50;30.70;99.20
21861;DHT22;11095;48.066;8.540;2023-08-20T15:21:16;30.70;99.50
21861;DHT22;11095;48.066;8.540;2023-08-20T15:23:42;30.80;99.80
21861;DHT22;11095;48.066;8.540;2023-08-20T15:26:07;30.80;99.90
21861;DHT22;11095;48.066;8.540;2023-08-20T15:28:33;30.80;99.90
21861;DHT22;11095;48.066;8.540;2023-08-20T15:31:00;30.60;99.90
21861;DHT22;11095;48.066;8.540;2023-08-20T15:33:26;30.40;99.90
21861;DHT22;11095;48.066;8.540;2023-08-20T15:35:52;30.40;99.90